Time;durP1;ratioP1;P1;durP2;ratioP2;P2;SDS_P1;SDS_P2;PMS_P1;PMS_P2;Temp;Humidity;BMP_temperature;BMP_pressure;BME280_temperature;BME280_humidity;BME280_pressure;Samples;Min_cycle;Max_cycle;Signal;HPM_P1;HPM_P2
2022/09/30 00:01:18;;;;;;;;;29.75;26.25;;;;;12.73;67.25;100464.81;5067588;28;45339;-61
2022/09/30 00:03:44;;;;;;;;;27.75;26.25;;;;;12.80;67.12;100484.16;5070310;28;45395;-61
2022/09/30 00:06:10;;;;;;;;;27.50;26.50;;;;;12.75;67.12;100484.38;5070845;28;48129;-61
2022/09/30 00:08:37;;;;;;;;;25.50;23.25;;;;;12.73;67.24;100488.03;5060150;28;45889;-61
2022/09/30 00:11:12;;;;;;;;;29.25;27.25;;;;;12.72;67.22;100487.19;5057902;28;45499;-61
2022/09/30 00:13:39;;;;;;;;;28.50;28.50;;;;;12.76;67.16;100487.91;5080919;28;45412;-61
2022/09/30 00:16:06;;;;;;;;;24.00;24.00;;;;;12.74;67.08;100490.66;5068799;28;46296;-61
2022/09/30 00:18:32;;;;;;;;;24.75;24.25;;;;;12.71;67.30;100485.44;5066103;28;45422;-61
2022/09/30 00:20:58;;;;;;;;;28.25;24.75;;;;;12.74;67.21;100487.09;5069981;28;46701;-62
2022/09/30 00:23:24;;;;;;;;;18.75;18.00;;;;;12.70;67.15;100477.50;5061460;27;45571;-61
2022/09/30 00:25:55;;;;;;;;;24.50;20.75;;;;;12.71;67.42;100481.88;5072882;28;45397;-61
2022/09/30 00:28:21;;;;;;;;;22.00;20.25;;;;;12.70;67.32;100482.84;5070070;28;46011;-61
2022/09/30 00:30:47;;;;;;;;;26.25;23.25;;;;;12.68;67.39;100482.91;5061492;28;45436;-61
2022/09/30 00:33:12;;;;;;;;;26.00;25.25;;;;;12.59;67.34;100476.13;5061273;28;45322;-61
2022/09/30 00:35:38;;;;;;;;;23.25;22.75;;;;;12.58;67.21;100474.41;5068584;28;46827;-61
2022/09/30 00:38:03;;;;;;;;;26.50;24.00;;;;;12.45;67.07;100454.50;5060733;28;45696;-61
2022/09/30 00:40:29;;;;;;;;;28.00;26.00;;;;;12.47;67.14;100457.09;5064430;28;45402;-61
2022/09/30 00:42:54;;;;;;;;;21.25;20.00;;;;;12.41;67.12;100448.41;5072746;28;45801;-61
2022/09/30 00:45:20;;;;;;;;;22.00;22.00;;;;;12.55;67.18;100471.88;5063806;28;45448;-61
2022/09/30 00:48:07;;;;;;;;;15.00;15.00;;;;;12.59;67.17;100484.16;5072130;28;45964;-61
2022/09/30 00:50:37;;;;;;;;;23.00;23.00;;;;;12.53;67.38;100472.88;5063375;28;45499;-61
2022/09/30 00:53:05;;;;;;;;;24.75;21.50;;;;;12.59;67.24;100492.19;5076862;28;45373;-61
2022/09/30 00:55:47;;;;;;;;;21.50;21.25;;;;;12.46;67.17;100471.41;5072771;28;47416;-61
2022/09/30 00:58:21;;;;;;;;;21.25;19.50;;;;;12.56;67.18;100494.16;5068631;28;45428;-61
2022/09/30 01:00:49;;;;;;;;;23.75;21.25;;;;;12.53;67.08;100492.50;5067342;28;45650;-61
2022/09/30 01:03:14;;;;;;;;;12.00;8.25;;;;;12.52;67.53;100492.56;5060709;28;45602;-61
2022/09/30 01:05:41;;;;;;;;;24.50;22.50;;;;;12.46;67.37;100482.97;5069620;28;45495;-61
2022/09/30 01:08:09;;;;;;;;;23.00;21.75;;;;;12.36;67.53;100479.88;5073880;27;45807;-61
2022/09/30 01:10:34;;;;;;;;;22.50;22.25;;;;;12.40;67.16;100480.59;5061961;28;45445;-61
2022/09/30 01:13:00;;;;;;;;;23.75;22.75;;;;;12.44;67.37;100495.56;5067789;28;45410;-61
2022/09/30 01:15:42;;;;;;;;;22.25;20.00;;;;;12.34;67.39;100495.09;5074675;28;45397;-61
2022/09/30 01:18:20;;;;;;;;;25.50;22.25;;;;;12.32;67.43;100488.09;5064019;28;45327;-62
2022/09/30 01:21:09;;;;;;;;;25.00;22.00;;;;;12.47;67.36;100514.19;5072287;28;45462;-61
2022/09/30 01:24:00;;;;;;;;;25.25;23.25;;;;;12.33;67.19;100487.13;5066850;27;45461;-61
2022/09/30 01:26:47;;;;;;;;;26.50;23.00;;;;;12.41;67.33;100503.72;5076429;28;46166;-61
2022/09/30 01:29:53;;;;;;;;;25.00;23.25;;;;;12.20;67.38;100468.94;5077594;28;45544;-61
2022/09/30 01:32:49;;;;;;;;;22.75;22.75;;;;;12.22;67.46;100469.75;5072615;28;45597;-61
2022/09/30 01:35:29;;;;;;;;;21.00;21.00;;;;;12.43;67.45;100501.88;5068236;28;45552;-61
2022/09/30 01:38:11;;;;;;;;;21.75;21.25;;;;;12.42;67.51;100503.66;5062104;28;45397;-61
2022/09/30 01:40:49;;;;;;;;;23.75;22.75;;;;;12.42;67.34;100508.16;5071753;28;45625;-61
2022/09/30 01:43:31;;;;;;;;;24.50;21.50;;;;;12.17;67.35;100455.69;5072383;28;45538;-61
2022/09/30 01:46:20;;;;;;;;;23.75;22.50;;;;;12.37;67.50;100502.13;5063854;28;45480;-61
2022/09/30 01:49:13;;;;;;;;;19.50;18.75;;;;;12.39;67.25;100508.28;5064001;27;45853;-61
2022/09/30 01:51:47;;;;;;;;;23.25;23.25;;;;;12.36;67.38;100505.75;5080059;27;45656;-61
2022/09/30 01:54:30;;;;;;;;;22.00;21.25;;;;;12.32;67.03;100498.78;5066527;28;45503;-61
2022/09/30 01:57:06;;;;;;;;;23.25;21.50;;;;;12.27;67.39;100492.78;5071903;28;45530;-61
2022/09/30 01:59:37;;;;;;;;;21.75;19.00;;;;;12.33;66.86;100512.13;5069729;28;46311;-61
2022/09/30 02:02:12;;;;;;;;;21.25;21.25;;;;;12.19;67.19;100485.94;5074651;28;45504;-61
2022/09/30 02:04:43;;;;;;;;;23.00;21.75;;;;;12.24;67.32;100501.78;5071200;28;45494;-61
2022/09/30 02:07:23;;;;;;;;;18.25;17.50;;;;;12.26;67.02;100502.59;5079527;27;45321;-61
2022/09/30 02:09:59;;;;;;;;;18.50;15.50;;;;;12.23;67.30;100498.25;5072409;28;45434;-61
2022/09/30 02:12:28;;;;;;;;;18.75;18.75;;;;;12.13;67.01;100482.66;5072886;28;45689;-61
2022/09/30 02:15:07;;;;;;;;;17.75;16.00;;;;;11.99;67.03;100464.53;5076815;27;45329;-61
2022/09/30 02:17:47;;;;;;;;;22.25;18.75;;;;;12.26;67.09;100510.63;5060147;28;45476;-61
2022/09/30 02:20:23;;;;;;;;;16.25;16.25;;;;;12.02;67.26;100472.41;5059989;28;46678;-61
2022/09/30 02:22:55;;;;;;;;;20.75;18.00;;;;;12.23;67.10;100505.41;5075433;28;45561;-62
2022/09/30 02:25:41;;;;;;;;;19.00;16.25;;;;;12.02;67.00;100470.59;5066063;28;45365;-61
2022/09/30 02:28:10;;;;;;;;;21.00;16.25;;;;;11.95;67.42;100466.47;5078646;28;45251;-61
2022/09/30 02:30:41;;;;;;;;;21.50;18.75;;;;;12.22;67.14;100506.34;5068660;28;45534;-61
2022/09/30 02:33:14;;;;;;;;;21.50;19.75;;;;;12.05;67.37;100474.97;5059468;28;45641;-62
2022/09/30 02:35:49;;;;;;;;;15.25;12.75;;;;;12.14;67.19;100487.94;5058833;28;45481;-62
2022/09/30 02:38:18;;;;;;;;;18.50;18.50;;;;;12.15;67.29;100495.03;5069602;28;45363;-62
2022/09/30 02:41:01;;;;;;;;;23.75;21.00;;;;;11.94;67.26;100459.34;5072790;28;46471;-62
2022/09/30 02:43:28;;;;;;;;;17.50;17.50;;;;;12.00;67.31;100472.47;5059461;28;45344;-61
2022/09/30 02:46:16;;;;;;;;;21.50;20.50;;;;;12.15;67.41;100499.53;5062776;28;45530;-61
2022/09/30 02:48:47;;;;;;;;;21.25;18.75;;;;;12.16;67.22;100490.53;5070096;28;45497;-61
2022/09/30 02:51:21;;;;;;;;;20.50;19.25;;;;;12.15;67.19;100491.50;5063818;28;46517;-61
2022/09/30 02:54:14;;;;;;;;;16.00;16.00;;;;;12.08;67.28;100498.03;5075235;27;45577;-61
2022/09/30 02:57:07;;;;;;;;;16.25;16.25;;;;;12.13;67.34;100517.44;5059380;28;45306;-61
2022/09/30 02:59:32;;;;;;;;;18.25;17.25;;;;;12.03;67.33;100500.91;5068051;28;45525;-61
2022/09/30 03:02:01;;;;;;;;;22.00;19.50;;;;;11.89;67.13;100479.19;5077658;28;46442;-61
2022/09/30 03:04:32;;;;;;;;;17.50;16.25;;;;;11.87;66.92;100481.91;5069125;28;45639;-61
2022/09/30 03:06:58;;;;;;;;;15.75;15.75;;;;;11.99;67.20;100508.19;5075565;28;45380;-61
2022/09/30 03:09:27;;;;;;;;;19.50;17.50;;;;;11.87;67.35;100495.28;5066730;28;45563;-61
2022/09/30 03:12:15;;;;;;;;;18.50;17.00;;;;;11.81;67.25;100491.09;5074463;28;46304;-61
2022/09/30 03:15:05;;;;;;;;;21.00;19.75;;;;;12.01;67.19;100522.38;5072113;28;61596;-61
2022/09/30 03:17:58;;;;;;;;;16.00;15.75;;;;;12.02;67.32;100539.28;5069911;28;45555;-61
2022/09/30 03:20:50;;;;;;;;;19.50;15.50;;;;;11.95;67.21;100533.31;5059027;28;45496;-61
2022/09/30 03:23:22;;;;;;;;;16.75;16.25;;;;;11.90;67.64;100526.41;5071267;28;45395;-61
2022/09/30 03:26:11;;;;;;;;;22.25;18.50;;;;;11.78;67.26;100509.06;5069898;28;45623;-61
2022/09/30 03:28:42;;;;;;;;;16.50;16.25;;;;;11.97;67.33;100554.66;5063412;28;45405;-61
2022/09/30 03:31:28;;;;;;;;;19.50;17.25;;;;;11.98;67.29;100565.31;5063342;28;45648;-61
2022/09/30 03:34:16;;;;;;;;;19.50;19.50;;;;;11.81;67.12;100535.66;5068778;28;48535;-61
2022/09/30 03:37:01;;;;;;;;;15.00;14.50;;;;;11.97;67.35;100571.56;5067846;28;45398;-61
2022/09/30 03:39:45;;;;;;;;;19.75;19.25;;;;;11.79;66.71;100545.56;5072185;28;45654;-62
2022/09/30 03:42:34;;;;;;;;;20.25;17.75;;;;;11.96;67.12;100582.34;5058563;28;45516;-61
2022/09/30 03:45:09;;;;;;;;;25.25;21.25;;;;;11.71;66.98;100537.84;5059189;28;45457;-61
2022/09/30 03:47:41;;;;;;;;;20.50;17.25;;;;;11.85;67.09;100574.72;5082538;27;45691;-61
2022/09/30 03:50:10;;;;;;;;;19.75;18.75;;;;;11.89;66.91;100586.16;5074325;28;45530;-62
2022/09/30 03:52:36;;;;;;;;;19.75;19.75;;;;;11.85;67.33;100583.63;5078664;28;45731;-62
2022/09/30 03:55:04;;;;;;;;;23.00;20.75;;;;;11.82;67.23;100594.44;5062021;28;45376;-61
2022/09/30 03:57:30;;;;;;;;;20.00;20.00;;;;;11.81;66.87;100592.72;5075508;28;45248;-62
2022/09/30 03:59:56;;;;;;;;;20.75;19.25;;;;;11.70;66.86;100581.56;5073948;28;45312;-62
2022/09/30 04:02:22;;;;;;;;;24.50;22.50;;;;;11.85;67.40;100613.03;5064262;27;45492;-62
2022/09/30 04:04:48;;;;;;;;;20.50;19.25;;;;;11.85;66.96;100613.03;5070706;28;45511;-62
2022/09/30 04:07:14;;;;;;;;;26.75;23.00;;;;;11.84;67.08;100621.13;5075033;28;45564;-62
2022/09/30 04:09:39;;;;;;;;;4.00;4.00;;;;;11.59;67.11;100590.00;5061697;28;45436;-61
2022/09/30 04:12:06;;;;;;;;;24.00;19.75;;;;;11.64;67.52;100605.84;5063923;28;45569;-61
2022/09/30 04:14:31;;;;;;;;;18.75;16.25;;;;;11.56;67.51;100600.81;5081493;28;46116;-61
2022/09/30 04:16:57;;;;;;;;;19.50;18.75;;;;;11.72;67.85;100629.63;5066631;28;45580;-61
2022/09/30 04:19:22;;;;;;;;;19.25;18.00;;;;;11.65;67.48;100620.97;5068041;28;45314;-62
2022/09/30 04:21:51;;;;;;;;;22.50;19.50;;;;;11.72;67.54;100624.28;5079757;28;45258;-61
2022/09/30 04:24:16;;;;;;;;;22.75;18.25;;;;;11.62;67.81;100623.78;5067470;27;46275;-62
2022/09/30 04:26:42;;;;;;;;;22.00;17.25;;;;;11.57;67.49;100607.91;5075025;28;45435;-61
2022/09/30 04:29:07;;;;;;;;;18.00;18.00;;;;;11.60;67.65;100626.50;5061622;28;45366;-61
2022/09/30 04:31:32;;;;;;;;;20.75;19.75;;;;;11.60;67.65;100628.31;5061368;28;45478;-61
2022/09/30 04:33:58;;;;;;;;;19.00;18.00;;;;;11.63;67.56;100645.09;5076851;28;47087;-61
2022/09/30 04:36:23;;;;;;;;;19.00;17.50;;;;;11.73;67.67;100650.06;5063341;28;45465;-61
2022/09/30 04:38:48;;;;;;;;;17.00;15.50;;;;;11.79;67.72;100666.75;5067848;28;45802;-61
2022/09/30 04:41:16;;;;;;;;;18.50;18.00;;;;;11.66;67.66;100639.63;5061215;28;45623;-62
2022/09/30 04:43:45;;;;;;;;;17.00;15.50;;;;;11.71;68.13;100654.63;5061526;28;45508;-61
2022/09/30 04:46:12;;;;;;;;;18.00;14.50;;;;;11.68;67.95;100659.16;5063118;28;45802;-62
2022/09/30 04:48:37;;;;;;;;;17.50;14.75;;;;;11.56;68.16;100643.59;5061823;28;45439;-62
2022/09/30 04:51:03;;;;;;;;;14.75;13.75;;;;;11.52;67.90;100636.59;5066761;28;45417;-62
2022/09/30 04:53:29;;;;;;;;;17.50;17.50;;;;;11.71;67.92;100666.22;5073554;27;45379;-62
2022/09/30 04:55:59;;;;;;;;;17.50;17.50;;;;;11.73;68.21;100669.69;5065970;28;45390;-62
2022/09/30 04:58:25;;;;;;;;;16.00;16.00;;;;;11.61;68.42;100649.63;5060406;28;45338;-62
2022/09/30 05:00:50;;;;;;;;;18.25;14.50;;;;;11.55;68.23;100641.84;5071797;28;45322;-62
2022/09/30 05:03:15;;;;;;;;;14.50;13.50;;;;;11.57;68.05;100639.97;5060948;28;45393;-61
2022/09/30 05:05:44;;;;;;;;;16.25;16.25;;;;;11.73;68.13;100663.44;5071240;28;45594;-61
2022/09/30 05:08:10;;;;;;;;;17.50;17.25;;;;;11.61;68.00;100641.63;5080039;28;45346;-61
2022/09/30 05:10:35;;;;;;;;;15.75;14.25;;;;;11.59;68.08;100647.94;5060970;28;45455;-61
2022/09/30 05:13:00;;;;;;;;;14.75;14.75;;;;;11.70;67.88;100660.91;5068146;28;45419;-61
2022/09/30 05:15:26;;;;;;;;;17.25;14.00;;;;;11.71;67.88;100666.22;5071657;28;49495;-61
2022/09/30 05:17:52;;;;;;;;;12.75;12.75;;;;;11.72;67.95;100664.41;5078630;28;45474;-61
2022/09/30 05:20:18;;;;;;;;;14.75;14.75;;;;;11.69;68.10;100662.69;5060843;28;45361;-61
2022/09/30 05:22:44;;;;;;;;;12.50;12.00;;;;;11.69;67.83;100654.69;5072203;28;46265;-61
2022/09/30 05:25:09;;;;;;;;;15.00;12.75;;;;;11.67;67.83;100649.38;5063429;27;45490;-61
2022/09/30 05:27:35;;;;;;;;;16.50;13.50;;;;;11.74;67.72;100668.75;5059254;28;45417;-61
2022/09/30 05:30:01;;;;;;;;;18.25;15.25;;;;;11.88;67.86;100694.97;5055848;28;45943;-61
2022/09/30 05:32:27;;;;;;;;;15.75;13.25;;;;;11.79;67.95;100682.81;5075890;28;46793;-61
2022/09/30 05:34:54;;;;;;;;;2.00;0.00;;;;;11.77;67.78;100673.13;5055823;28;45379;-62
2022/09/30 05:37:22;;;;;;;;;19.75;15.50;;;;;11.73;67.90;100674.13;5060083;28;45335;-61
2022/09/30 05:39:47;;;;;;;;;14.75;12.25;;;;;11.79;68.09;100687.28;5071479;28;45472;-61
2022/09/30 05:42:13;;;;;;;;;17.50;14.50;;;;;11.66;68.02;100668.16;5068633;28;47586;-62
2022/09/30 05:44:38;;;;;;;;;14.00;14.00;;;;;11.84;68.10;100699.56;5060222;28;45300;-62
2022/09/30 05:47:04;;;;;;;;;16.25;13.00;;;;;11.70;67.88;100676.97;5071575;28;45361;-62
2022/09/30 05:49:29;;;;;;;;;19.25;18.75;;;;;11.90;68.01;100713.66;5060948;28;45482;-62
2022/09/30 05:51:55;;;;;;;;;18.50;16.75;;;;;11.74;67.73;100692.81;5070514;28;45341;-62
2022/09/30 05:54:20;;;;;;;;;15.25;14.00;;;;;11.80;67.61;100697.94;5072654;27;45306;-61
2022/09/30 05:56:46;;;;;;;;;20.00;16.25;;;;;11.90;68.02;100716.31;5074532;27;45364;-61
2022/09/30 05:59:12;;;;;;;;;14.50;13.75;;;;;11.85;67.66;100698.63;5059880;28;45497;-61
2022/09/30 06:01:37;;;;;;;;;12.50;12.00;;;;;11.79;67.72;100696.19;5073536;28;46164;-61
2022/09/30 06:04:02;;;;;;;;;16.00;15.75;;;;;11.87;67.66;100711.94;5075325;27;45327;-61
2022/09/30 06:06:29;;;;;;;;;12.25;11.25;;;;;11.97;67.63;100733.91;5078796;28;45307;-61
2022/09/30 06:08:55;;;;;;;;;12.25;12.25;;;;;11.86;67.61;100715.53;5074320;27;45485;-61
2022/09/30 06:11:22;;;;;;;;;15.75;15.00;;;;;11.95;67.53;100735.78;5067575;28;45593;-61
2022/09/30 06:13:48;;;;;;;;;17.25;15.00;;;;;11.74;67.79;100698.16;5069003;28;45317;-61
2022/09/30 06:16:15;;;;;;;;;18.25;16.50;;;;;11.90;67.72;100727.00;5059867;27;45325;-61
2022/09/30 06:18:41;;;;;;;;;17.75;15.50;;;;;11.89;67.48;100733.28;5064017;28;45291;-61
2022/09/30 06:21:09;;;;;;;;;17.25;17.25;;;;;11.92;67.51;100743.91;5065086;28;46186;-62
2022/09/30 06:23:34;;;;;;;;;13.75;12.75;;;;;11.82;67.53;100736.19;5061077;27;45405;-61
2022/09/30 06:26:02;;;;;;;;;18.75;17.25;;;;;11.84;67.45;100736.13;5048495;28;46396;-61
2022/09/30 06:28:27;;;;;;;;;17.25;17.00;;;;;11.78;67.80;100741.72;5062193;28;46018;-61
2022/09/30 06:30:53;;;;;;;;;14.50;14.00;;;;;11.81;67.55;100753.19;5075206;27;48180;-62
2022/09/30 06:33:19;;;;;;;;;15.75;15.00;;;;;11.91;67.94;100771.53;5078310;28;45280;-62
2022/09/30 06:35:46;;;;;;;;;19.00;15.50;;;;;11.79;67.81;100751.47;5075212;28;45494;-62
2022/09/30 06:38:14;;;;;;;;;19.00;16.00;;;;;11.89;68.13;100773.41;5072676;28;45549;-62
2022/09/30 06:40:40;;;;;;;;;14.50;13.25;;;;;11.75;67.84;100752.53;5078353;28;46073;-61
2022/09/30 06:43:06;;;;;;;;;17.75;16.50;;;;;11.72;67.88;100742.81;5075622;28;45837;-61
2022/09/30 06:45:34;;;;;;;;;14.25;14.25;;;;;11.63;67.79;100730.66;5064318;28;45369;-61
2022/09/30 06:48:01;;;;;;;;;21.25;20.25;;;;;11.79;67.94;100760.34;5059004;28;45513;-61
2022/09/30 06:50:26;;;;;;;;;16.00;14.00;;;;;11.89;68.05;100779.63;5058135;28;47373;-61
2022/09/30 06:52:57;;;;;;;;;18.25;15.25;;;;;11.86;67.81;100785.06;5060030;27;45570;-62
2022/09/30 06:55:23;;;;;;;;;16.75;16.75;;;;;11.68;68.12;100750.06;5075571;27;45401;-61
2022/09/30 06:57:48;;;;;;;;;18.75;18.75;;;;;11.67;68.01;100753.66;5066796;27;45547;-61
2022/09/30 07:00:15;;;;;;;;;21.00;19.75;;;;;11.76;68.24;100760.50;5064602;27;45505;-61
2022/09/30 07:02:41;;;;;;;;;21.50;16.25;;;;;11.70;68.25;100749.16;5075645;27;45434;-61
2022/09/30 07:05:07;;;;;;;;;21.50;17.75;;;;;11.87;68.13;100776.13;5066315;28;48945;-61
2022/09/30 07:07:33;;;;;;;;;20.75;20.75;;;;;11.72;68.42;100755.31;5069966;27;46556;-61
2022/09/30 07:09:59;;;;;;;;;21.25;19.50;;;;;11.92;68.31;100795.59;5059573;28;47164;-62
2022/09/30 07:12:25;;;;;;;;;22.75;18.75;;;;;11.92;68.82;100784.03;5061523;27;45517;-61
2022/09/30 07:14:51;;;;;;;;;19.25;14.75;;;;;11.80;68.75;100761.25;5077764;28;45430;-61
2022/09/30 07:17:16;;;;;;;;;21.25;19.75;;;;;11.81;68.63;100760.31;5078532;27;45369;-61
2022/09/30 07:19:42;;;;;;;;;17.50;15.50;;;;;11.94;68.86;100777.66;5065484;28;47233;-61
2022/09/30 07:24:51;;;;;;;;;24.00;21.00;;;;;11.84;69.27;100758.41;5072218;28;45543;-62
2022/09/30 07:27:18;;;;;;;;;24.25;22.75;;;;;11.93;68.93;100781.31;5063464;27;45741;-61
2022/09/30 07:29:44;;;;;;;;;20.75;20.75;;;;;11.79;68.92;100757.69;5066596;28;46416;-63
2022/09/30 07:32:11;;;;;;;;;22.25;21.50;;;;;11.77;69.10;100759.56;5079026;27;45477;-62
2022/09/30 07:34:41;;;;;;;;;19.25;18.75;;;;;11.78;69.09;100766.66;5058596;28;45982;-62
2022/09/30 07:37:08;;;;;;;;;20.75;17.25;;;;;11.94;69.29;100790.19;5059155;27;45409;-62
2022/09/30 07:39:34;;;;;;;;;25.00;23.00;;;;;11.75;69.38;100765.91;5063984;28;46570;-62
2022/09/30 07:42:01;;;;;;;;;23.25;21.25;;;;;11.72;69.43;100750.81;5070113;27;45268;-62
2022/09/30 07:44:28;;;;;;;;;23.50;21.75;;;;;11.95;69.48;100779.44;5070572;27;45987;-62
2022/09/30 07:46:53;;;;;;;;;22.50;20.50;;;;;12.06;69.81;100800.41;5068537;28;45486;-62
2022/09/30 07:49:24;;;;;;;;;27.00;25.25;;;;;12.01;69.59;100779.22;5070733;28;47354;-62
2022/09/30 07:51:51;;;;;;;;;26.25;24.00;;;;;11.90;69.57;100756.44;5077954;27;45389;-62
2022/09/30 07:54:21;;;;;;;;;26.00;24.25;;;;;12.14;69.71;100798.31;5066447;27;45675;-63
2022/09/30 07:56:48;;;;;;;;;30.00;25.25;;;;;12.13;69.50;100783.22;5071974;27;45359;-62
2022/09/30 07:59:14;;;;;;;;;26.00;24.75;;;;;12.19;69.37;100799.03;5065784;28;46180;-62
2022/09/30 08:01:39;;;;;;;;;27.25;26.25;;;;;12.12;69.63;100783.28;5067529;27;45554;-62
2022/09/30 08:04:08;;;;;;;;;25.25;21.75;;;;;12.15;69.54;100777.81;5057614;28;46154;-63
2022/09/30 08:06:46;;;;;;;;;24.50;24.00;;;;;12.26;69.35;100793.44;5068325;27;45574;-64
2022/09/30 08:09:14;;;;;;;;;28.25;28.25;;;;;12.30;69.00;100800.44;5058339;28;45410;-63
2022/09/30 08:11:41;;;;;;;;;27.75;27.00;;;;;12.35;69.29;100798.44;5071707;27;45443;-63
2022/09/30 08:14:07;;;;;;;;;30.50;27.50;;;;;12.39;69.42;100800.06;5066713;28;45485;-63
2022/09/30 08:16:32;;;;;;;;;32.25;28.50;;;;;12.39;69.50;100795.56;5063113;27;45666;-63
2022/09/30 08:19:00;;;;;;;;;28.00;28.00;;;;;12.38;68.94;100793.00;5067090;28;46181;-64
2022/09/30 08:21:27;;;;;;;;;33.50;30.25;;;;;12.37;69.32;100791.22;5071968;27;45797;-64
2022/09/30 08:23:53;;;;;;;;;29.75;25.50;;;;;12.41;69.23;100785.69;5067888;28;45267;-63
2022/09/30 08:26:19;;;;;;;;;30.00;29.25;;;;;12.46;69.12;100788.16;5073970;27;45526;-63
2022/09/30 08:28:46;;;;;;;;;25.25;25.00;;;;;12.50;69.07;100789.81;5076537;27;46630;-64
2022/09/30 08:31:18;;;;;;;;;29.75;29.00;;;;;12.65;69.12;100811.56;5082461;27;45578;-63
2022/09/30 08:33:44;;;;;;;;;32.50;29.75;;;;;12.55;68.90;100785.16;5078146;28;45467;-63
2022/09/30 08:36:13;;;;;;;;;37.25;31.75;;;;;12.69;69.15;100800.66;5079656;27;45517;-63
2022/09/30 08:38:38;;;;;;;;;34.25;29.75;;;;;12.63;68.89;100784.84;5065421;28;45450;-63
2022/09/30 08:41:16;;;;;;;;;37.00;33.25;;;;;12.81;69.30;100790.38;5077354;27;45459;-63
2022/09/30 08:44:06;;;;;;;;;39.25;34.50;;;;;12.94;69.08;100810.38;5075589;28;45418;-63
2022/09/30 08:46:52;;;;;;;;;27.00;26.75;;;;;12.92;69.07;100793.50;5071008;27;45545;-63
2022/09/30 08:49:17;;;;;;;;;27.25;27.00;;;;;13.07;68.97;100816.09;5069691;27;46447;-63
2022/09/30 08:51:48;;;;;;;;;31.67;29.67;;;;;13.10;69.16;100810.63;5076538;27;45539;-63
2022/09/30 08:54:18;;;;;;;;;37.50;33.00;;;;;13.12;68.96;100800.72;5076608;28;45429;-65
2022/09/30 08:56:45;;;;;;;;;41.25;34.50;;;;;13.17;68.64;100798.69;5078499;27;45350;-65
2022/09/30 08:59:16;;;;;;;;;28.75;27.75;;;;;13.32;68.38;100808.78;5076328;27;47051;-65
2022/09/30 09:01:52;;;;;;;;;32.50;31.00;;;;;13.39;68.01;100805.88;5080132;27;45693;-65
2022/09/30 09:04:18;;;;;;;;;36.25;33.25;;;;;13.32;68.25;100784.66;5066494;28;45459;-65
2022/09/30 09:06:57;;;;;;;;;37.00;34.00;;;;;13.57;67.61;100814.94;5085656;27;45406;-65
2022/09/30 09:09:56;;;;;;;;;37.75;33.75;;;;;13.63;67.86;100795.84;5062480;28;45469;-65
2022/09/30 09:12:47;;;;;;;;;38.00;34.50;;;;;13.68;67.97;100805.47;5069078;27;45437;-65
2022/09/30 09:15:49;;;;;;;;;31.75;29.75;;;;;13.83;67.99;100813.75;5072328;27;45408;-65
2022/09/30 09:18:21;;;;;;;;;32.75;30.25;;;;;13.92;67.68;100810.66;5070467;28;45388;-64
2022/09/30 09:20:59;;;;;;;;;30.50;30.25;;;;;13.93;66.46;100800.78;5075790;27;46486;-64
2022/09/30 09:23:27;;;;;;;;;29.50;27.25;;;;;13.97;66.66;100797.91;5063382;28;45747;-64
2022/09/30 09:25:53;;;;;;;;;28.75;28.50;;;;;14.00;66.36;100797.78;5074957;27;45385;-64
2022/09/30 09:28:34;;;;;;;;;26.50;26.00;;;;;14.15;66.25;100814.09;5076509;28;45527;-64
2022/09/30 09:31:00;;;;;;;;;25.75;24.25;;;;;14.18;66.30;100820.22;5060049;27;45474;-64
2022/09/30 09:33:34;;;;;;;;;27.75;26.75;;;;;14.27;65.88;100822.47;5063665;28;45751;-64
2022/09/30 09:36:31;;;;;;;;;26.75;25.75;;;;;14.39;66.17;100826.38;5080431;27;45421;-64
2022/09/30 09:39:08;;;;;;;;;25.50;25.00;;;;;14.49;65.93;100842.09;5038100;28;45334;-64
2022/09/30 09:41:46;;;;;;;;;20.00;20.00;;;;;14.55;64.83;100831.91;5073612;27;46102;-64
2022/09/30 09:44:31;;;;;;;;;22.25;20.00;;;;;14.62;65.07;100830.72;5060091;28;45367;-64
2022/09/30 09:47:15;;;;;;;;;23.75;22.75;;;;;14.71;64.76;100836.59;5068569;27;45544;-64
2022/09/30 09:49:52;;;;;;;;;10.25;9.25;;;;;14.66;64.22;100812.63;5058532;28;45496;-64
2022/09/30 09:52:36;;;;;;;;;5.75;5.50;;;;;14.89;62.67;100838.38;5073662;27;47072;-64
2022/09/30 09:55:01;;;;;;;;;13.00;11.00;;;;;14.94;62.29;100832.78;5070471;28;45338;-64
2022/09/30 09:57:31;;;;;;;;;9.00;8.50;;;;;14.97;62.16;100825.44;5065248;27;45586;-64
2022/09/30 10:03:20;;;;;;;;;14.50;12.75;;;;;15.14;61.68;100821.03;5091178;27;45917;-64
2022/09/30 10:06:01;;;;;;;;;14.50;14.00;;;;;15.21;62.19;100821.59;5076906;27;45373;-64
2022/09/30 10:08:29;;;;;;;;;16.50;15.50;;;;;15.26;61.92;100815.03;5072207;28;45939;-64
2022/09/30 10:10:58;;;;;;;;;17.00;17.00;;;;;15.29;61.38;100822.09;5067995;27;45622;-64
2022/09/30 10:13:28;;;;;;;;;21.00;19.00;;;;;15.32;61.56;100819.25;5075996;28;46480;-64
2022/09/30 10:15:56;;;;;;;;;20.25;20.25;;;;;15.38;61.79;100816.22;5073190;27;45574;-64
2022/09/30 10:18:34;;;;;;;;;20.25;19.00;;;;;15.39;61.98;100817.97;5073255;28;45350;-64
2022/09/30 10:21:04;;;;;;;;;25.75;21.50;;;;;15.54;61.83;100832.47;5075377;27;45439;-64
2022/09/30 10:23:38;;;;;;;;;22.25;20.25;;;;;15.59;61.17;100832.22;5068556;28;46252;-64
2022/09/30 10:26:04;;;;;;;;;19.00;18.25;;;;;15.66;61.25;100829.13;5065940;27;45548;-64
2022/09/30 10:28:44;;;;;;;;;22.25;22.25;;;;;15.70;61.33;100827.13;5068210;28;45389;-64
2022/09/30 10:31:23;;;;;;;;;20.25;18.75;;;;;15.78;61.16;100824.94;5070345;28;45442;-64
2022/09/30 10:34:03;;;;;;;;;22.25;21.50;;;;;15.84;61.46;100824.63;5059673;27;47114;-64
2022/09/30 10:36:32;;;;;;;;;22.00;20.50;;;;;15.81;60.88;100818.53;5059633;28;48072;-64
2022/09/30 10:39:02;;;;;;;;;19.50;18.50;;;;;15.89;60.99;100827.94;5059345;28;45768;-64
2022/09/30 10:41:31;;;;;;;;;22.75;21.75;;;;;15.87;60.93;100810.13;5061315;28;45642;-64
2022/09/30 10:44:00;;;;;;;;;18.00;16.00;;;;;15.89;60.63;100814.47;5058523;28;46768;-64
2022/09/30 10:46:34;;;;;;;;;18.50;16.25;;;;;15.88;60.77;100810.03;5064300;28;46023;-64
2022/09/30 10:49:08;;;;;;;;;17.00;15.75;;;;;15.85;60.49;100802.13;5052541;28;45492;-64
2022/09/30 10:51:35;;;;;;;;;19.25;18.00;;;;;15.92;60.08;100808.06;5073519;28;45418;-64
2022/09/30 10:54:01;;;;;;;;;21.75;18.50;;;;;16.03;59.70;100812.88;5070987;28;46165;-64
2022/09/30 10:56:38;;;;;;;;;16.25;15.00;;;;;16.11;59.70;100826.78;5075597;28;45458;-64
2022/09/30 10:59:15;;;;;;;;;15.25;13.00;;;;;16.13;58.99;100818.63;5077090;28;45556;-64
2022/09/30 11:01:49;;;;;;;;;13.25;13.25;;;;;16.20;59.13;100826.28;5067423;28;45300;-64
2022/09/30 11:04:31;;;;;;;;;14.75;14.50;;;;;16.18;58.60;100811.16;5072004;28;46733;-64
2022/09/30 11:07:34;;;;;;;;;15.00;15.00;;;;;16.30;58.50;100819.47;5060475;28;46764;-64
2022/09/30 11:10:07;;;;;;;;;16.50;15.00;;;;;16.29;58.18;100798.84;5054462;28;45610;-65
2022/09/30 11:12:50;;;;;;;;;14.00;14.00;;;;;16.38;58.23;100808.25;5066545;28;45534;-65
2022/09/30 11:15:20;;;;;;;;;10.00;9.25;;;;;16.34;56.65;100814.75;5059229;28;45432;-65
2022/09/30 11:17:56;;;;;;;;;8.50;8.00;;;;;16.32;56.38;100803.19;5064289;28;45862;-65
2022/09/30 11:20:25;;;;;;;;;7.75;7.75;;;;;16.49;56.95;100826.50;5071602;28;48685;-64
2022/09/30 11:23:18;;;;;;;;;8.00;8.00;;;;;16.51;56.38;100829.13;5063304;27;45773;-64
2022/09/30 11:25:58;;;;;;;;;6.25;6.00;;;;;16.46;56.42;100811.38;5060305;28;45731;-63
2022/09/30 11:28:23;;;;;;;;;6.00;6.00;;;;;16.62;56.34;100824.88;5068310;27;46130;-63
2022/09/30 11:31:09;;;;;;;;;7.50;7.00;;;;;16.61;55.49;100825.81;5072955;28;45544;-63
2022/09/30 11:33:40;;;;;;;;;8.00;5.50;;;;;16.68;55.24;100826.34;5070273;28;45884;-63
2022/09/30 11:36:19;;;;;;;;;8.25;6.25;;;;;16.68;55.13;100808.34;5067874;27;47434;-63